Time;durP1;ratioP1;P1;durP2;ratioP2;P2;SDS_P1;SDS_P2;PMS_P1;PMS_P2;Temp;Humidity;BMP_temperature;BMP_pressure;BME280_temperature;BME280_humidity;BME280_pressure;Samples;Min_cycle;Max_cycle;Signal;HPM_P1;HPM_P2
2023/10/07 00:02:12;;;;;;;8.98;3.38;;;;;;;;;;5036263;28;20029;-71
2023/10/07 00:04:38;;;;;;;23.80;4.70;;;;;;;;;;5033112;28;20081;-71
2023/10/07 00:07:04;;;;;;;10.65;4.03;;;;;;;;;;5032552;28;20423;-71
2023/10/07 00:09:29;;;;;;;11.85;4.00;;;;;;;;;;5042823;28;20021;-71
2023/10/07 00:11:54;;;;;;;10.60;4.30;;;;;;;;;;5032667;28;20579;-73
2023/10/07 00:14:26;;;;;;;8.88;3.40;;;;;;;;;;5032729;28;20283;-73
2023/10/07 00:16:52;;;;;;;10.07;4.07;;;;;;;;;;5032829;28;20034;-73
2023/10/07 00:19:17;;;;;;;10.23;3.85;;;;;;;;;;5036095;28;20032;-73
2023/10/07 00:21:55;;;;;;;11.38;4.07;;;;;;;;;;5033071;28;20025;-73
2023/10/07 00:24:20;;;;;;;19.55;4.03;;;;;;;;;;5038038;28;20021;-73
2023/10/07 00:26:47;;;;;;;12.90;3.73;;;;;;;;;;5032911;28;20025;-73
2023/10/07 00:29:12;;;;;;;11.45;3.58;;;;;;;;;;5034882;28;20272;-73
2023/10/07 00:31:40;;;;;;;11.63;4.47;;;;;;;;;;5039462;28;20361;-72
2023/10/07 00:34:06;;;;;;;7.18;4.03;;;;;;;;;;5032933;28;20480;-73
2023/10/07 00:38:59;;;;;;;13.90;4.53;;;;;;;;;;5030560;28;20451;-73
2023/10/07 00:41:36;;;;;;;12.73;4.65;;;;;;;;;;5035435;28;20022;-73
2023/10/07 00:44:16;;;;;;;9.77;4.20;;;;;;;;;;5028656;28;20107;-73
2023/10/07 00:46:41;;;;;;;13.05;4.13;;;;;;;;;;5035590;28;20013;-73
2023/10/07 00:49:13;;;;;;;8.80;3.88;;;;;;;;;;5038668;28;20411;-73
2023/10/07 00:51:42;;;;;;;9.73;4.22;;;;;;;;;;5031648;28;20024;-73
2023/10/07 00:54:18;;;;;;;20.98;4.78;;;;;;;;;;5036015;28;20018;-73
2023/10/07 00:57:03;;;;;;;12.55;4.13;;;;;;;;;;5031924;28;20082;-72
2023/10/07 00:59:29;;;;;;;11.10;4.07;;;;;;;;;;5031793;28;20419;-72
2023/10/07 01:01:57;;;;;;;12.57;4.32;;;;;;;;;;5031845;28;20025;-73
2023/10/07 01:04:22;;;;;;;11.45;4.05;;;;;;;;;;5031177;28;20025;-73
2023/10/07 01:06:47;;;;;;;10.23;4.30;;;;;;;;;;5030750;28;20400;-73
2023/10/07 01:09:22;;;;;;;8.90;4.13;;;;;;;;;;5028693;28;20021;-73
2023/10/07 01:11:56;;;;;;;12.23;4.70;;;;;;;;;;5034621;28;20139;-72
2023/10/07 01:14:22;;;;;;;14.93;4.63;;;;;;;;;;5036218;28;20504;-73
2023/10/07 01:16:47;;;;;;;10.53;4.03;;;;;;;;;;5034507;28;20069;-73
2023/10/07 01:20:05;;;;;;;11.20;4.40;;;;;;;;;;5031532;28;20260;-73
2023/10/07 01:22:08;;;;;;;11.15;4.20;;;;;;;;;;5016175;28;20406;-72
2023/10/07 01:27:07;;;;;;;13.50;5.07;;;;;;;;;;5033992;28;20048;-73
2023/10/07 01:29:34;;;;;;;11.75;4.00;;;;;;;;;;5033091;28;20018;-73
2023/10/07 01:31:59;;;;;;;14.40;4.97;;;;;;;;;;5033617;28;20075;-73
2023/10/07 01:34:25;;;;;;;12.60;4.82;;;;;;;;;;5036916;28;20025;-73
2023/10/07 01:36:51;;;;;;;11.52;3.97;;;;;;;;;;5033519;28;20017;-73
2023/10/07 01:39:17;;;;;;;16.63;4.50;;;;;;;;;;5037330;28;20014;-73
2023/10/07 01:41:42;;;;;;;14.07;4.50;;;;;;;;;;5041853;28;20021;-73
2023/10/07 01:44:08;;;;;;;13.55;4.82;;;;;;;;;;5030986;28;20108;-73
2023/10/07 01:46:34;;;;;;;16.17;4.32;;;;;;;;;;5036383;28;20119;-73
2023/10/07 01:49:12;;;;;;;9.23;3.83;;;;;;;;;;5039213;28;20102;-72
2023/10/07 01:51:44;;;;;;;12.65;4.30;;;;;;;;;;5030411;28;20061;-72
2023/10/07 01:54:11;;;;;;;8.68;3.67;;;;;;;;;;5034108;28;20025;-72
2023/10/07 01:56:38;;;;;;;17.98;4.07;;;;;;;;;;5029842;28;20037;-72
2023/10/07 01:59:17;;;;;;;12.80;3.90;;;;;;;;;;5033265;28;20035;-73
2023/10/07 02:01:46;;;;;;;14.88;4.05;;;;;;;;;;5031260;28;20017;-73
2023/10/07 02:04:29;;;;;;;8.20;3.58;;;;;;;;;;5030655;28;20021;-73
2023/10/07 02:06:55;;;;;;;20.13;4.30;;;;;;;;;;5025043;28;20115;-72
2023/10/07 02:09:24;;;;;;;14.52;4.50;;;;;;;;;;5023953;28;20496;-73
2023/10/07 02:11:51;;;;;;;14.98;4.00;;;;;;;;;;5030016;28;20492;-72
2023/10/07 02:14:16;;;;;;;12.10;4.75;;;;;;;;;;5034153;28;20037;-73
2023/10/07 02:16:41;;;;;;;8.18;3.70;;;;;;;;;;5032017;28;20020;-73
2023/10/07 02:19:07;;;;;;;14.70;4.93;;;;;;;;;;5030728;28;20029;-73
2023/10/07 02:21:33;;;;;;;13.93;4.28;;;;;;;;;;5026552;28;20283;-73
2023/10/07 02:23:58;;;;;;;15.25;4.32;;;;;;;;;;5033438;28;20032;-73
2023/10/07 02:26:24;;;;;;;9.80;4.07;;;;;;;;;;5027189;28;20018;-73
2023/10/07 02:28:51;;;;;;;11.00;3.80;;;;;;;;;;5033009;28;20258;-73
2023/10/07 02:31:18;;;;;;;16.45;4.57;;;;;;;;;;5041423;28;20033;-72
2023/10/07 02:33:51;;;;;;;14.90;4.57;;;;;;;;;;5038573;28;20021;-72
2023/10/07 02:36:31;;;;;;;10.25;4.10;;;;;;;;;;5028557;28;20472;-72
2023/10/07 02:39:00;;;;;;;15.20;4.70;;;;;;;;;;5032422;28;20095;-72
2023/10/07 02:41:26;;;;;;;15.82;4.63;;;;;;;;;;5029914;28;20318;-72
2023/10/07 02:43:51;;;;;;;11.82;4.22;;;;;;;;;;5028791;28;20048;-72
2023/10/07 02:46:31;;;;;;;12.98;3.83;;;;;;;;;;5028380;28;20096;-72
2023/10/07 02:49:04;;;;;;;9.52;3.35;;;;;;;;;;5029741;28;20104;-72
2023/10/07 02:51:29;;;;;;;8.10;4.25;;;;;;;;;;5020473;28;20120;-73
2023/10/07 02:54:05;;;;;;;16.93;4.83;;;;;;;;;;5027200;28;20216;-73
2023/10/07 02:56:43;;;;;;;14.75;4.60;;;;;;;;;;5026315;28;20367;-73
2023/10/07 02:59:22;;;;;;;15.18;4.30;;;;;;;;;;5024711;28;20029;-73
2023/10/07 03:02:12;;;;;;;16.30;4.00;;;;;;;;;;5028715;28;20045;-73
2023/10/07 03:04:34;;;;;;;15.02;4.75;;;;;;;;;;5028176;28;20037;-73
2023/10/07 03:07:00;;;;;;;11.05;4.13;;;;;;;;;;5030225;28;20013;-73
2023/10/07 03:09:33;;;;;;;12.48;5.13;;;;;;;;;;5031762;28;20563;-73
2023/10/07 03:12:02;;;;;;;11.35;4.75;;;;;;;;;;5028540;28;20067;-73
2023/10/07 03:14:27;;;;;;;16.95;4.88;;;;;;;;;;5031790;28;20030;-73
2023/10/07 03:16:59;;;;;;;11.10;5.13;;;;;;;;;;5034182;28;20044;-73
2023/10/07 03:19:33;;;;;;;12.25;5.30;;;;;;;;;;5023539;28;20311;-73
2023/10/07 03:22:09;;;;;;;19.52;4.60;;;;;;;;;;5027813;28;20030;-73
2023/10/07 03:24:49;;;;;;;13.55;5.35;;;;;;;;;;5024620;28;20072;-73
2023/10/07 03:27:22;;;;;;;12.80;4.93;;;;;;;;;;5032786;28;20021;-73
2023/10/07 03:29:59;;;;;;;12.38;4.22;;;;;;;;;;5031349;28;20028;-73
2023/10/07 03:32:24;;;;;;;11.00;3.92;;;;;;;;;;5031974;28;20021;-73
2023/10/07 03:34:49;;;;;;;13.27;4.53;;;;;;;;;;5025746;28;20029;-73
2023/10/07 03:37:14;;;;;;;16.30;4.67;;;;;;;;;;5033796;28;20473;-73
2023/10/07 03:42:24;;;;;;;14.93;4.60;;;;;;;;;;5032759;28;20341;-73
2023/10/07 03:44:49;;;;;;;15.60;4.85;;;;;;;;;;5035496;28;20029;-72
2023/10/07 03:47:15;;;;;;;11.18;4.85;;;;;;;;;;5029339;28;20384;-73
2023/10/07 03:49:40;;;;;;;16.30;5.47;;;;;;;;;;5032336;28;20068;-73
2023/10/07 03:52:12;;;;;;;10.00;4.30;;;;;;;;;;5030807;28;20037;-73
2023/10/07 03:54:40;;;;;;;15.13;4.78;;;;;;;;;;5028991;28;20014;-73
2023/10/07 03:57:07;;;;;;;11.93;4.85;;;;;;;;;;5029904;28;20017;-72
2023/10/07 03:59:34;;;;;;;15.73;4.75;;;;;;;;;;5032101;28;20036;-72
2023/10/07 04:02:00;;;;;;;12.15;4.90;;;;;;;;;;5029573;28;20112;-73
2023/10/07 04:04:26;;;;;;;15.63;4.82;;;;;;;;;;5029296;28;20010;-73
2023/10/07 04:06:51;;;;;;;10.52;4.55;;;;;;;;;;5030207;28;20531;-72
2023/10/07 04:09:17;;;;;;;16.65;4.63;;;;;;;;;;5025078;28;20646;-72
2023/10/07 04:11:48;;;;;;;12.70;4.30;;;;;;;;;;5031632;28;20098;-73
2023/10/07 04:14:27;;;;;;;15.63;4.43;;;;;;;;;;5032337;28;20658;-73
2023/10/07 04:16:53;;;;;;;13.27;5.30;;;;;;;;;;5030190;28;20029;-73
2023/10/07 04:21:44;;;;;;;16.90;4.67;;;;;;;;;;5033643;28;20022;-73
2023/10/07 04:24:10;;;;;;;18.83;5.05;;;;;;;;;;5028425;28;20889;-73
2023/10/07 04:26:39;;;;;;;15.13;4.82;;;;;;;;;;5030228;28;20456;-73
2023/10/07 04:29:07;;;;;;;11.18;4.70;;;;;;;;;;5031828;28;20049;-73
2023/10/07 04:31:37;;;;;;;15.23;4.80;;;;;;;;;;5034413;28;20041;-73
2023/10/07 04:34:03;;;;;;;18.92;5.18;;;;;;;;;;5027958;28;20017;-72
2023/10/07 04:36:39;;;;;;;16.05;4.65;;;;;;;;;;5029850;28;20071;-73
2023/10/07 04:39:16;;;;;;;14.43;5.40;;;;;;;;;;5026176;28;20045;-73
2023/10/07 04:41:43;;;;;;;11.68;4.35;;;;;;;;;;5021445;28;20034;-73
2023/10/07 04:47:03;;;;;;;11.82;4.40;;;;;;;;;;5029809;28;20036;-72
2023/10/07 04:49:38;;;;;;;19.30;4.35;;;;;;;;;;5031606;28;20092;-72
2023/10/07 04:52:06;;;;;;;22.23;4.72;;;;;;;;;;5026118;28;20029;-73
2023/10/07 04:54:35;;;;;;;12.75;4.97;;;;;;;;;;5032426;28;20460;-73
2023/10/07 04:57:00;;;;;;;14.18;5.45;;;;;;;;;;5025419;28;20026;-73
2023/10/07 04:59:26;;;;;;;17.73;5.45;;;;;;;;;;5030078;28;20075;-73
2023/10/07 05:01:56;;;;;;;28.80;5.43;;;;;;;;;;5029747;28;20388;-73
2023/10/07 05:04:24;;;;;;;20.08;4.47;;;;;;;;;;5033879;28;20033;-73
2023/10/07 05:06:51;;;;;;;15.25;4.55;;;;;;;;;;5031917;28;20017;-73
2023/10/07 05:09:21;;;;;;;14.55;4.20;;;;;;;;;;5030374;28;20101;-72
2023/10/07 05:11:47;;;;;;;11.60;4.53;;;;;;;;;;5030550;28;20014;-72
2023/10/07 05:14:18;;;;;;;19.75;5.63;;;;;;;;;;5029216;28;20428;-72
2023/10/07 05:16:46;;;;;;;14.77;5.10;;;;;;;;;;5030571;28;20108;-72
2023/10/07 05:19:19;;;;;;;11.35;4.40;;;;;;;;;;5032556;28;20030;-73
2023/10/07 05:21:45;;;;;;;9.90;4.35;;;;;;;;;;5029911;28;20456;-73
2023/10/07 05:24:11;;;;;;;16.02;4.22;;;;;;;;;;5030439;28;20100;-72
2023/10/07 05:26:40;;;;;;;11.65;4.57;;;;;;;;;;5026081;28;20049;-72
2023/10/07 05:29:07;;;;;;;15.50;5.03;;;;;;;;;;5032057;28;20024;-72
2023/10/07 05:31:33;;;;;;;12.00;5.88;;;;;;;;;;5032066;28;20019;-73
2023/10/07 05:33:59;;;;;;;11.90;5.57;;;;;;;;;;5033281;28;20030;-73
2023/10/07 05:36:29;;;;;;;17.45;5.22;;;;;;;;;;5030331;28;20013;-73
2023/10/07 05:38:55;;;;;;;17.08;5.57;;;;;;;;;;5032151;28;20028;-73
2023/10/07 05:41:25;;;;;;;12.50;4.63;;;;;;;;;;5028530;28;20029;-73
2023/10/07 05:43:51;;;;;;;12.45;4.95;;;;;;;;;;5033568;28;20029;-73
2023/10/07 05:46:17;;;;;;;25.10;5.50;;;;;;;;;;5028738;28;20480;-73
2023/10/07 05:48:43;;;;;;;13.65;5.20;;;;;;;;;;5027257;28;20018;-73
2023/10/07 05:51:08;;;;;;;12.25;4.60;;;;;;;;;;5023243;28;20071;-73
2023/10/07 05:53:51;;;;;;;14.20;5.50;;;;;;;;;;5021055;28;20022;-72
2023/10/07 05:56:17;;;;;;;14.07;5.20;;;;;;;;;;5032334;28;20040;-72
2023/10/07 05:58:46;;;;;;;15.45;4.93;;;;;;;;;;5031130;28;20111;-73
2023/10/07 06:01:11;;;;;;;14.75;5.07;;;;;;;;;;5037891;28;20081;-73
2023/10/07 06:03:37;;;;;;;15.23;5.25;;;;;;;;;;5027603;28;20543;-73
2023/10/07 06:06:04;;;;;;;15.52;5.07;;;;;;;;;;5027754;28;20056;-73
2023/10/07 06:08:29;;;;;;;14.07;5.63;;;;;;;;;;5028897;28;20044;-73
2023/10/07 06:10:59;;;;;;;13.18;5.10;;;;;;;;;;5027939;28;20018;-73
2023/10/07 06:13:26;;;;;;;16.95;5.75;;;;;;;;;;5024383;28;20020;-73
2023/10/07 06:15:51;;;;;;;20.60;5.43;;;;;;;;;;5027834;28;20021;-72
2023/10/07 06:18:18;;;;;;;15.55;4.65;;;;;;;;;;5027976;28;20017;-73
2023/10/07 06:20:46;;;;;;;15.02;5.50;;;;;;;;;;5021295;28;20058;-73
2023/10/07 06:23:15;;;;;;;14.27;5.30;;;;;;;;;;5025052;28;20063;-73
2023/10/07 06:25:42;;;;;;;18.65;4.72;;;;;;;;;;5025001;28;20021;-73
2023/10/07 06:28:10;;;;;;;15.57;4.35;;;;;;;;;;5030138;28;20032;-73
2023/10/07 06:30:38;;;;;;;12.75;4.57;;;;;;;;;;5027065;28;20025;-73
2023/10/07 06:33:04;;;;;;;17.80;4.78;;;;;;;;;;5018881;28;20025;-73
2023/10/07 06:35:29;;;;;;;10.88;5.15;;;;;;;;;;5022907;28;20021;-73
2023/10/07 06:37:57;;;;;;;15.05;4.53;;;;;;;;;;5031700;28;20040;-73
2023/10/07 06:40:28;;;;;;;10.88;3.92;;;;;;;;;;5031973;28;20634;-73
2023/10/07 06:42:56;;;;;;;16.30;4.45;;;;;;;;;;5028262;28;20045;-73
2023/10/07 06:45:21;;;;;;;10.98;3.70;;;;;;;;;;5033392;28;20175;-73
2023/10/07 06:47:46;;;;;;;15.60;4.35;;;;;;;;;;5032565;28;20475;-73
2023/10/07 06:50:19;;;;;;;17.95;4.97;;;;;;;;;;5023403;28;20028;-72
2023/10/07 06:52:45;;;;;;;10.65;5.15;;;;;;;;;;5025437;28;20014;-72
2023/10/07 06:55:18;;;;;;;11.32;4.10;;;;;;;;;;5028456;28;20045;-72
2023/10/07 06:57:46;;;;;;;13.55;4.30;;;;;;;;;;5030860;28;20021;-73
2023/10/07 07:00:22;;;;;;;13.25;4.25;;;;;;;;;;5031959;28;20488;-73
2023/10/07 07:02:54;;;;;;;10.48;4.65;;;;;;;;;;5027851;28;20049;-73
2023/10/07 07:05:19;;;;;;;12.63;4.18;;;;;;;;;;5026504;28;20084;-72
2023/10/07 07:07:44;;;;;;;13.45;3.67;;;;;;;;;;5029678;28;20017;-72
2023/10/07 07:10:16;;;;;;;15.30;4.33;;;;;;;;;;5029838;28;20021;-72
2023/10/07 07:12:41;;;;;;;11.40;3.97;;;;;;;;;;5033626;28;20677;-72
2023/10/07 07:15:08;;;;;;;13.10;4.97;;;;;;;;;;5032546;28;20029;-72
2023/10/07 07:17:36;;;;;;;14.57;4.05;;;;;;;;;;5027763;28;20276;-72
2023/10/07 07:22:32;;;;;;;20.45;4.80;;;;;;;;;;5028427;28;20467;-73
2023/10/07 07:24:57;;;;;;;10.30;3.85;;;;;;;;;;5033133;28;20112;-73
2023/10/07 07:27:24;;;;;;;15.13;5.05;;;;;;;;;;5029924;28;20314;-73
2023/10/07 07:29:49;;;;;;;13.15;4.00;;;;;;;;;;5029886;28;20070;-73
2023/10/07 07:32:18;;;;;;;13.23;4.70;;;;;;;;;;5027806;28;20033;-73
2023/10/07 07:34:44;;;;;;;10.73;4.20;;;;;;;;;;5031931;28;20295;-72
2023/10/07 07:37:10;;;;;;;15.07;4.85;;;;;;;;;;5029474;28;20021;-73
2023/10/07 07:39:36;;;;;;;9.20;4.10;;;;;;;;;;5026028;28;20063;-73
2023/10/07 07:42:15;;;;;;;11.27;4.32;;;;;;;;;;5031977;28;20652;-73
2023/10/07 07:44:57;;;;;;;17.52;4.07;;;;;;;;;;5033492;28;20021;-73
2023/10/07 07:47:22;;;;;;;5.75;2.30;;;;;;;;;;5026712;28;20021;-73
2023/10/07 07:49:48;;;;;;;12.27;4.07;;;;;;;;;;5020742;28;20032;-73
2023/10/07 07:52:15;;;;;;;11.35;4.40;;;;;;;;;;5023230;28;20029;-73
2023/10/07 07:54:41;;;;;;;8.68;3.95;;;;;;;;;;5027777;28;20409;-73
2023/10/07 07:57:08;;;;;;;19.55;4.22;;;;;;;;;;5028622;28;20113;-73
2023/10/07 07:59:33;;;;;;;10.48;3.58;;;;;;;;;;5028666;28;20028;-73
2023/10/07 08:02:11;;;;;;;10.05;4.40;;;;;;;;;;5027106;28;20096;-72
2023/10/07 08:04:45;;;;;;;11.20;4.75;;;;;;;;;;5029598;28;20080;-71
2023/10/07 08:07:32;;;;;;;15.60;4.53;;;;;;;;;;5025337;28;20022;-72
2023/10/07 08:10:03;;;;;;;9.20;4.00;;;;;;;;;;5030724;28;20084;-72
2023/10/07 08:12:30;;;;;;;11.88;3.53;;;;;;;;;;5029933;28;20052;-72
2023/10/07 08:14:58;;;;;;;13.65;4.30;;;;;;;;;;5032444;28;20064;-72
2023/10/07 08:17:27;;;;;;;12.65;4.50;;;;;;;;;;5030378;28;20021;-72
2023/10/07 08:19:53;;;;;;;11.38;4.32;;;;;;;;;;5031052;28;20113;-72
2023/10/07 08:22:19;;;;;;;11.95;3.58;;;;;;;;;;5030401;28;20104;-72
2023/10/07 08:24:44;;;;;;;8.15;3.45;;;;;;;;;;5027485;28;20045;-72
2023/10/07 08:27:43;;;;;;;16.92;4.60;;;;;;;;;;5030309;28;20075;-72
2023/10/07 08:29:56;;;;;;;18.65;4.88;;;;;;;;;;5027572;28;20029;-72
2023/10/07 08:32:35;;;;;;;21.88;4.55;;;;;;;;;;5025422;28;20032;-72
2023/10/07 08:35:01;;;;;;;12.63;3.80;;;;;;;;;;5029572;28;20025;-72
2023/10/07 08:37:32;;;;;;;13.45;3.70;;;;;;;;;;5020982;28;20029;-72
2023/10/07 08:40:26;;;;;;;10.68;4.55;;;;;;;;;;5025634;28;20057;-72
2023/10/07 08:42:53;;;;;;;13.05;3.75;;;;;;;;;;5030355;28;20033;-72
2023/10/07 08:45:23;;;;;;;10.23;3.50;;;;;;;;;;5026133;28;20033;-72
2023/10/07 08:47:52;;;;;;;8.77;3.83;;;;;;;;;;5030460;28;20028;-72
2023/10/07 08:50:23;;;;;;;12.88;4.05;;;;;;;;;;5031860;28;20576;-72
2023/10/07 08:52:52;;;;;;;15.05;4.88;;;;;;;;;;5029682;28;20028;-72
2023/10/07 08:55:18;;;;;;;16.48;4.45;;;;;;;;;;5031636;28;20052;-72
2023/10/07 08:57:47;;;;;;;10.30;3.88;;;;;;;;;;5028528;28;20060;-72
2023/10/07 09:00:12;;;;;;;11.40;4.35;;;;;;;;;;5020184;28;20030;-72
2023/10/07 09:02:39;;;;;;;10.77;4.55;;;;;;;;;;5030145;28;20558;-72
2023/10/07 09:05:09;;;;;;;15.68;4.50;;;;;;;;;;5031407;28;20017;-72
2023/10/07 09:07:35;;;;;;;20.20;4.35;;;;;;;;;;5028130;28;20022;-72
2023/10/07 09:10:06;;;;;;;9.88;3.85;;;;;;;;;;5029892;28;20056;-72
2023/10/07 09:12:36;;;;;;;9.05;4.13;;;;;;;;;;5025489;28;20476;-72
2023/10/07 09:15:12;;;;;;;13.55;4.05;;;;;;;;;;5028712;28;20075;-71
2023/10/07 09:17:40;;;;;;;8.15;3.67;;;;;;;;;;5031357;28;20026;-72
2023/10/07 09:20:13;;;;;;;9.70;4.07;;;;;;;;;;5028760;28;20582;-73
2023/10/07 09:22:45;;;;;;;9.00;3.65;;;;;;;;;;5028204;28;20053;-73
2023/10/07 09:25:28;;;;;;;10.00;4.40;;;;;;;;;;5029922;28;20626;-72
2023/10/07 09:27:56;;;;;;;15.27;4.13;;;;;;;;;;5029937;28;20087;-73
2023/10/07 09:33:13;;;;;;;9.60;3.58;;;;;;;;;;5029833;28;20079;-74
2023/10/07 09:35:42;;;;;;;13.20;3.67;;;;;;;;;;5031328;28;20029;-73
2023/10/07 09:38:12;;;;;;;12.88;3.75;;;;;;;;;;5030891;28;20022;-73
2023/10/07 09:43:25;;;;;;;12.30;3.10;;;;;;;;;;5029539;28;20079;-73
2023/10/07 09:45:58;;;;;;;9.07;2.92;;;;;;;;;;5026375;28;20464;-73
2023/10/07 09:48:23;;;;;;;8.57;3.58;;;;;;;;;;5031352;28;20057;-73
2023/10/07 09:50:50;;;;;;;13.07;3.35;;;;;;;;;;5033282;28;20059;-73
2023/10/07 09:53:36;;;;;;;11.20;2.97;;;;;;;;;;5032077;28;20041;-73
2023/10/07 09:56:04;;;;;;;12.48;3.50;;;;;;;;;;5023347;28;20489;-73
2023/10/07 09:58:47;;;;;;;6.57;2.42;;;;;;;;;;5030937;28;20116;-73
2023/10/07 10:01:29;;;;;;;10.27;3.05;;;;;;;;;;5026522;28;20025;-72
2023/10/07 10:04:32;;;;;;;12.98;3.72;;;;;;;;;;5032625;28;20104;-73
2023/10/07 10:07:11;;;;;;;11.00;2.97;;;;;;;;;;5008042;28;20018;-73
2023/10/07 10:10:05;;;;;;;7.13;2.85;;;;;;;;;;5020891;28;20112;-73
2023/10/07 10:12:53;;;;;;;12.10;3.50;;;;;;;;;;5030886;28;20071;-73
2023/10/07 10:17:53;;;;;;;8.23;3.42;;;;;;;;;;5032108;28;20076;-73
2023/10/07 10:20:20;;;;;;;8.57;3.15;;;;;;;;;;5030299;28;20025;-72
2023/10/07 10:22:52;;;;;;;9.45;3.00;;;;;;;;;;5032401;28;20033;-73
2023/10/07 10:28:02;;;;;;;8.23;3.05;;;;;;;;;;5024031;28;20080;-72
2023/10/07 10:30:28;;;;;;;9.52;2.40;;;;;;;;;;5030355;28;20013;-72
2023/10/07 10:32:54;;;;;;;7.18;2.55;;;;;;;;;;5032978;28;20467;-73
2023/10/07 10:35:26;;;;;;;9.63;3.17;;;;;;;;;;5032149;28;20364;-74
2023/10/07 10:37:57;;;;;;;7.57;2.90;;;;;;;;;;5030968;28;20024;-73
2023/10/07 10:40:23;;;;;;;10.57;2.95;;;;;;;;;;5031078;28;20103;-72
2023/10/07 10:42:49;;;;;;;9.27;2.70;;;;;;;;;;5030697;28;20029;-73
2023/10/07 10:45:21;;;;;;;10.15;3.45;;;;;;;;;;5031018;28;20025;-73
2023/10/07 10:47:50;;;;;;;9.65;2.65;;;;;;;;;;5030959;28;20665;-73
2023/10/07 10:50:17;;;;;;;14.02;3.40;;;;;;;;;;5030356;28;20029;-73
2023/10/07 10:52:42;;;;;;;8.00;3.08;;;;;;;;;;5029012;28;20107;-73
2023/10/07 10:55:08;;;;;;;9.40;3.00;;;;;;;;;;5029723;28;20508;-73
2023/10/07 10:57:39;;;;;;;10.27;3.30;;;;;;;;;;5030430;28;20041;-73
2023/10/07 11:00:16;;;;;;;4.75;2.13;;;;;;;;;;5029659;28;20022;-73
2023/10/07 11:02:41;;;;;;;8.93;4.05;;;;;;;;;;5031419;28;20022;-73
2023/10/07 11:05:08;;;;;;;8.33;2.27;;;;;;;;;;5031480;28;20033;-73
2023/10/07 11:07:36;;;;;;;9.95;3.35;;;;;;;;;;5030492;28;20199;-73
2023/10/07 11:10:04;;;;;;;5.90;2.38;;;;;;;;;;5030145;28;20021;-73
2023/10/07 11:12:32;;;;;;;5.55;1.98;;;;;;;;;;5030225;28;20060;-73
2023/10/07 11:15:06;;;;;;;8.63;2.78;;;;;;;;;;5030117;28;20025;-73
2023/10/07 11:17:31;;;;;;;10.45;2.42;;;;;;;;;;5029813;28;20105;-73
2023/10/07 11:19:58;;;;;;;6.85;2.40;;;;;;;;;;5030410;28;20504;-73
2023/10/07 11:22:23;;;;;;;8.95;2.90;;;;;;;;;;5030891;28;20387;-73
2023/10/07 11:24:50;;;;;;;7.40;2.22;;;;;;;;;;5029452;28;20017;-73
2023/10/07 11:27:15;;;;;;;5.13;2.08;;;;;;;;;;5030180;28;20095;-73
2023/10/07 11:29:40;;;;;;;7.70;2.58;;;;;;;;;;5033190;28;20068;-73
2023/10/07 11:32:06;;;;;;;4.38;2.08;;;;;;;;;;5034301;28;20032;-73
2023/10/07 11:34:39;;;;;;;5.68;2.45;;;;;;;;;;5034358;28;20034;-73
2023/10/07 11:37:09;;;;;;;6.22;1.85;;;;;;;;;;5031521;28;20017;-73
2023/10/07 11:39:38;;;;;;;9.30;2.22;;;;;;;;;;5034486;28;20092;-73
2023/10/07 11:42:05;;;;;;;7.72;2.40;;;;;;;;;;5034815;28;20029;-73
2023/10/07 11:44:31;;;;;;;4.63;1.85;;;;;;;;;;5034138;28;20024;-73
2023/10/07 11:46:56;;;;;;;8.40;2.27;;;;;;;;;;5033965;28;20088;-73
2023/10/07 11:49:22;;;;;;;13.68;2.60;;;;;;;;;;5032982;28;20738;-73
2023/10/07 11:51:47;;;;;;;5.18;2.28;;;;;;;;;;5034751;28;20075;-73
2023/10/07 11:54:12;;;;;;;5.35;2.05;;;;;;;;;;5033036;28;20438;-73
2023/10/07 11:56:39;;;;;;;6.23;2.17;;;;;;;;;;5034113;28;20029;-73
2023/10/07 11:59:05;;;;;;;5.22;1.98;;;;;;;;;;5033971;28;20033;-73
2023/10/07 12:01:32;;;;;;;6.85;2.38;;;;;;;;;;5030142;28;20041;-73
2023/10/07 12:03:58;;;;;;;7.80;2.20;;;;;;;;;;5033082;28;20056;-73
2023/10/07 12:06:24;;;;;;;7.38;2.05;;;;;;;;;;5033516;28;20041;-73
2023/10/07 12:08:49;;;;;;;4.10;1.70;;;;;;;;;;5033700;28;20116;-73
2023/10/07 12:11:18;;;;;;;6.47;2.33;;;;;;;;;;5031931;28;20548;-73
2023/10/07 12:13:43;;;;;;;5.43;2.30;;;;;;;;;;5033788;28;20018;-73
2023/10/07 12:16:09;;;;;;;12.63;2.80;;;;;;;;;;5032848;28;20545;-73
2023/10/07 12:18:34;;;;;;;5.18;2.03;;;;;;;;;;5033166;28;20075;-73
2023/10/07 12:21:00;;;;;;;7.25;2.58;;;;;;;;;;5033458;28;20104;-73
2023/10/07 12:23:27;;;;;;;7.22;2.78;;;;;;;;;;5033520;28;20016;-73
2023/10/07 12:25:52;;;;;;;8.98;2.33;;;;;;;;;;5033488;28;20041;-73
2023/10/07 12:28:18;;;;;;;6.23;2.23;;;;;;;;;;5032362;28;20040;-73
2023/10/07 12:30:44;;;;;;;9.30;2.63;;;;;;;;;;5033126;28;20021;-73
2023/10/07 12:33:09;;;;;;;6.25;2.20;;;;;;;;;;5032293;28;20025;-73
2023/10/07 12:35:34;;;;;;;4.97;2.33;;;;;;;;;;5033448;28;20388;-73
2023/10/07 12:38:00;;;;;;;6.57;1.97;;;;;;;;;;5032826;28;20060;-73
2023/10/07 12:40:28;;;;;;;8.10;2.25;;;;;;;;;;5032526;28;20026;-73
2023/10/07 12:42:54;;;;;;;5.13;1.83;;;;;;;;;;5031631;28;20013;-73
2023/10/07 12:45:20;;;;;;;5.30;2.25;;;;;;;;;;5032885;28;20084;-73
2023/10/07 12:47:45;;;;;;;7.63;2.17;;;;;;;;;;5032753;28;20017;-73
2023/10/07 12:53:05;;;;;;;8.20;2.55;;;;;;;;;;5015751;28;20773;-73
2023/10/07 12:55:31;;;;;;;9.03;2.50;;;;;;;;;;5028394;28;20112;-73
2023/10/07 12:57:56;;;;;;;9.10;3.13;;;;;;;;;;5031358;28;20282;-73
2023/10/07 13:00:31;;;;;;;9.97;2.40;;;;;;;;;;5029154;28;20041;-73
2023/10/07 13:02:57;;;;;;;9.18;3.10;;;;;;;;;;5032314;28;20248;-73
2023/10/07 13:05:23;;;;;;;6.95;2.53;;;;;;;;;;5031622;28;20063;-73
2023/10/07 13:07:53;;;;;;;14.63;2.95;;;;;;;;;;5032483;28;20536;-73
2023/10/07 13:10:18;;;;;;;;;;;;;;;;;;5032332;28;20040;-73
2023/10/07 13:12:43;;;;;;;10.18;2.65;;;;;;;;;;5031825;28;20356;-73
2023/10/07 13:15:15;;;;;;;8.15;2.83;;;;;;;;;;5030109;28;20025;-73
2023/10/07 13:17:41;;;;;;;10.10;2.70;;;;;;;;;;5029831;28;20439;-73
2023/10/07 13:20:07;;;;;;;5.72;2.78;;;;;;;;;;5031011;28;20108;-73
2023/10/07 13:22:33;;;;;;;6.90;2.63;;;;;;;;;;5031912;28;20017;-73
2023/10/07 13:24:59;;;;;;;11.02;3.25;;;;;;;;;;5031142;28;20017;-73
2023/10/07 13:27:24;;;;;;;13.93;3.22;;;;;;;;;;5029672;28;20022;-73
2023/10/07 13:29:50;;;;;;;13.87;3.97;;;;;;;;;;5031268;28;20021;-73
2023/10/07 13:32:15;;;;;;;10.00;2.92;;;;;;;;;;5030690;28;20029;-73
2023/10/07 13:34:41;;;;;;;11.77;2.90;;;;;;;;;;5031730;28;20476;-73
2023/10/07 13:37:11;;;;;;;12.25;3.25;;;;;;;;;;5030704;28;20036;-73
2023/10/07 13:39:38;;;;;;;6.90;2.65;;;;;;;;;;5030032;28;20040;-73
2023/10/07 13:42:09;;;;;;;11.98;3.15;;;;;;;;;;5031170;28;20076;-73
2023/10/07 13:44:34;;;;;;;8.15;3.10;;;;;;;;;;5031303;28;20030;-73
2023/10/07 13:47:00;;;;;;;9.15;3.15;;;;;;;;;;5029984;28;20036;-73
2023/10/07 13:49:25;;;;;;;11.70;4.38;;;;;;;;;;5030410;28;20026;-73
2023/10/07 13:51:51;;;;;;;9.38;3.03;;;;;;;;;;5030731;28;20380;-73
2023/10/07 13:56:55;;;;;;;10.95;3.50;;;;;;;;;;5030905;28;20451;-73
2023/10/07 13:59:24;;;;;;;9.00;2.78;;;;;;;;;;5030834;28;20025;-73
2023/10/07 14:01:52;;;;;;;6.57;2.60;;;;;;;;;;5029944;28;20032;-73
2023/10/07 14:04:19;;;;;;;7.93;2.90;;;;;;;;;;5030869;28;20024;-73
2023/10/07 14:06:45;;;;;;;9.27;3.22;;;;;;;;;;5030717;28;20052;-73
2023/10/07 14:09:16;;;;;;;5.03;2.70;;;;;;;;;;5028917;28;20048;-73
2023/10/07 14:11:48;;;;;;;8.00;3.00;;;;;;;;;;5028228;28;20093;-73
2023/10/07 14:14:13;;;;;;;9.50;3.28;;;;;;;;;;5030705;28;20376;-73
2023/10/07 14:16:38;;;;;;;9.80;3.10;;;;;;;;;;5030330;28;20104;-73
2023/10/07 14:19:06;;;;;;;10.10;3.67;;;;;;;;;;5029396;28;20472;-73
2023/10/07 14:21:31;;;;;;;10.80;4.15;;;;;;;;;;5030291;28;20014;-73
2023/10/07 14:23:57;;;;;;;6.55;2.92;;;;;;;;;;5029682;28;20022;-73
2023/10/07 14:26:23;;;;;;;11.98;3.63;;;;;;;;;;5022805;28;20026;-73
2023/10/07 14:28:48;;;;;;;10.25;3.75;;;;;;;;;;5029335;28;20091;-73
2023/10/07 14:31:17;;;;;;;8.07;4.30;;;;;;;;;;5036090;28;20017;-73
2023/10/07 14:33:43;;;;;;;8.02;3.67;;;;;;;;;;5033238;28;20760;-73
2023/10/07 14:36:11;;;;;;;14.75;6.65;;;;;;;;;;5041637;28;20024;-73
2023/10/07 14:38:37;;;;;;;11.50;5.13;;;;;;;;;;5049913;28;20107;-73
2023/10/07 14:41:02;;;;;;;6.22;3.10;;;;;;;;;;5039576;28;20053;-73
2023/10/07 14:43:28;;;;;;;8.13;3.10;;;;;;;;;;5039961;28;20116;-73
2023/10/07 14:45:53;;;;;;;10.70;3.35;;;;;;;;;;5049964;28;20028;-73
2023/10/07 14:48:19;;;;;;;7.35;3.05;;;;;;;;;;5034888;28;20020;-73
2023/10/07 14:50:44;;;;;;;10.40;3.17;;;;;;;;;;5044085;28;20032;-73
2023/10/07 14:53:12;;;;;;;7.25;3.08;;;;;;;;;;5049921;28;20045;-73
2023/10/07 14:55:38;;;;;;;19.33;7.85;;;;;;;;;;5041027;28;20067;-73
2023/10/07 14:58:03;;;;;;;18.23;7.72;;;;;;;;;;5040044;28;20032;-73
2023/10/07 15:00:32;;;;;;;12.68;4.30;;;;;;;;;;5049553;28;20013;-73
2023/10/07 15:03:01;;;;;;;10.02;4.57;;;;;;;;;;5041464;28;20488;-73
2023/10/07 15:05:26;;;;;;;9.48;3.38;;;;;;;;;;5039041;28;20014;-73
2023/10/07 15:07:52;;;;;;;6.93;3.08;;;;;;;;;;5044998;28;20021;-73
2023/10/07 15:10:18;;;;;;;7.35;3.47;;;;;;;;;;5035540;28;20097;-73
2023/10/07 15:12:43;;;;;;;7.75;2.60;;;;;;;;;;5037453;28;20025;-73
2023/10/07 15:15:12;;;;;;;8.60;3.20;;;;;;;;;;5044945;28;20089;-73